createdAt,value
2016-04-01T00:00:56.941Z,67
2016-04-01T00:01:55.475Z,67
2016-04-01T00:02:54.212Z,67
2016-04-01T00:03:55.308Z,67
2016-04-01T00:04:53.748Z,67
2016-04-01T00:05:52.407Z,68
2016-04-01T00:06:51.113Z,67
2016-04-01T00:07:49.616Z,67
2016-04-01T00:08:48.166Z,67
2016-04-01T00:09:46.699Z,67
2016-04-01T00:10:45.124Z,67
2016-04-01T00:11:43.658Z,67
2016-04-01T00:12:42.380Z,67
2016-04-01T00:13:43.397Z,67
2016-04-01T00:14:41.822Z,67
2016-04-01T00:15:40.481Z,67
2016-04-01T00:16:39.000Z,67
2016-04-01T00:17:37.471Z,67
2016-04-01T00:18:35.973Z,67
2016-04-01T00:19:34.633Z,67
2016-04-01T00:20:33.198Z,68
2016-04-01T00:21:31.856Z,67
2016-04-01T00:22:30.579Z,67
2016-04-01T00:23:31.581Z,67
2016-04-01T00:24:30.162Z,68
2016-04-01T00:25:29.040Z,67
2016-04-01T00:26:27.464Z,67
2016-04-01T00:27:25.995Z,67
2016-04-01T00:28:24.529Z,67
2016-04-01T00:29:22.969Z,67
2016-04-01T00:30:21.644Z,68
2016-04-01T00:31:20.412Z,67
2016-04-01T00:32:19.008Z,67
2016-04-01T00:33:19.871Z,68
2016-04-01T00:34:18.717Z,68
2016-04-01T00:35:17.516Z,68
2016-04-01T00:36:16.426Z,68
2016-04-01T00:37:15.225Z,68
2016-04-01T00:38:14.024Z,68
2016-04-01T00:39:12.684Z,68
2016-04-01T00:40:11.467Z,68
2016-04-01T00:41:10.252Z,67
2016-04-01T00:42:08.864Z,68
2016-04-01T00:43:09.866Z,67
2016-04-01T00:44:08.416Z,68
2016-04-01T00:45:07.324Z,68
2016-04-01T00:46:06.108Z,67
2016-04-01T00:47:04.533Z,68
2016-04-01T00:48:03.457Z,68
2016-04-01T00:49:02.116Z,67
2016-04-01T00:50:00.791Z,67
2016-04-01T00:50:59.451Z,68
2016-04-01T00:51:58.063Z,68
2016-04-01T00:52:59.221Z,68
2016-04-01T00:53:57.989Z,68
2016-04-01T00:54:56.665Z,68
2016-04-01T00:55:55.480Z,68
2016-04-01T00:56:54.435Z,68
2016-04-01T00:57:53.063Z,68
2016-04-01T00:58:51.847Z,68
2016-04-01T00:59:50.631Z,68
2016-04-01T01:00:49.431Z,68
2016-04-01T01:01:48.277Z,68
2016-04-01T01:02:49.342Z,68
2016-04-01T01:03:48.095Z,68
2016-04-01T01:04:47.035Z,68
2016-04-01T01:05:45.678Z,68
2016-04-01T01:06:44.478Z,68
2016-04-01T01:07:43.277Z,68
2016-04-01T01:08:42.186Z,68
2016-04-01T01:09:40.861Z,68
2016-04-01T01:10:39.645Z,68
2016-04-01T01:11:38.507Z,68
2016-04-01T01:12:39.525Z,68
2016-04-01T01:13:38.434Z,68
2016-04-01T01:14:37.218Z,68
2016-04-01T01:15:36.018Z,68
2016-04-01T01:16:34.692Z,68
2016-04-01T01:17:33.616Z,68
2016-04-01T01:18:32.401Z,68
2016-04-01T01:19:31.060Z,67
2016-04-01T01:20:29.624Z,68
2016-04-01T01:21:28.580Z,67
2016-04-01T01:22:29.615Z,68
2016-04-01T01:23:28.398Z,68
2016-04-01T01:24:27.179Z,67
2016-04-01T01:25:25.604Z,67
2016-04-01T01:26:24.279Z,67
2016-04-01T01:27:22.906Z,67
2016-04-01T01:28:21.346Z,67
2016-04-01T01:29:19.928Z,68
2016-04-01T01:30:18.571Z,68
2016-04-01T01:31:17.417Z,68
2016-04-01T01:32:18.561Z,68
2016-04-01T01:33:17.235Z,68
2016-04-01T01:34:16.050Z,67
2016-04-01T01:35:14.584Z,68
2016-04-01T01:36:13.352Z,68
2016-04-01T01:37:12.277Z,68
2016-04-01T01:38:10.952Z,68
2016-04-01T01:39:09.861Z,68
2016-04-01T01:40:08.660Z,68
2016-04-01T01:41:07.381Z,68
2016-04-01T01:42:08.416Z,68
2016-04-01T01:43:07.199Z,68
2016-04-01T01:44:06.405Z,68
2016-04-01T01:45:05.298Z,68
2016-04-01T01:46:04.364Z,68
2016-04-01T01:47:03.397Z,68
2016-04-01T01:48:02.557Z,68
2016-04-01T07:33:03.135Z,69
2016-04-01T07:34:02.700Z,69
2016-04-01T07:35:02.374Z,69
2016-04-01T07:36:01.799Z,69
2016-04-01T07:37:01.349Z,69
2016-04-01T07:38:00.898Z,69
2016-04-01T07:39:00.620Z,69
2016-04-01T07:40:01.529Z,69
2016-04-01T07:41:01.078Z,69
2016-04-01T07:42:00.628Z,69
2016-04-01T07:43:00.193Z,69
2016-04-01T07:43:59.729Z,69
2016-04-01T07:44:59.262Z,69
2016-04-01T07:45:58.797Z,69
2016-04-01T07:46:58.346Z,69
2016-04-01T07:47:57.927Z,69
2016-04-01T07:48:57.487Z,68
2016-04-01T07:49:58.531Z,66
2016-04-01T07:50:56.531Z,64
2016-04-01T07:51:57.588Z,63
2016-04-01T07:52:57.664Z,61
2016-04-01T07:53:56.695Z,59
2016-04-01T07:54:54.976Z,58
2016-04-01T07:55:52.867Z,57
2016-04-01T07:56:54.103Z,56
2016-04-01T07:57:54.916Z,55
2016-04-01T07:59:56.435Z,54
2016-04-01T08:00:56.109Z,54
2016-04-01T08:01:55.923Z,54
2016-04-01T08:02:55.472Z,53
2016-04-01T08:03:54.865Z,53
2016-04-01T08:04:54.164Z,53
2016-04-01T08:05:53.134Z,53
2016-04-01T08:06:52.183Z,52
2016-04-01T08:07:50.936Z,52
2016-04-01T08:08:49.907Z,52
2016-04-01T08:09:50.863Z,52
2016-04-01T08:10:49.381Z,52
2016-04-01T08:11:48.040Z,51
2016-04-01T08:13:44.530Z,51
2016-04-01T08:14:43.095Z,51
2016-04-01T08:15:41.238Z,51
2016-04-01T08:19:36.781Z,50
2016-04-01T08:22:30.131Z,50
2016-04-01T08:26:25.299Z,50
2016-04-01T08:35:38.824Z,49
2016-04-01T08:40:46.509Z,49
2016-04-01T08:43:51.142Z,49
2016-04-01T08:47:57.481Z,49
2016-04-01T08:49:59.767Z,49
2016-04-01T08:51:01.145Z,49
2016-04-01T08:52:02.554Z,49
2016-04-01T08:53:03.747Z,49
2016-04-01T08:55:05.815Z,49
2016-04-01T08:56:07.130Z,50
2016-04-01T08:58:06.385Z,50
2016-04-01T08:59:04.369Z,51
2016-04-01T09:00:05.388Z,52
2016-04-01T09:01:03.781Z,52
2016-04-01T09:02:02.799Z,52
2016-04-01T09:03:01.489Z,52
2016-04-01T09:04:00.336Z,53
2016-04-01T09:04:59.260Z,53
2016-04-01T09:05:58.654Z,53
2016-04-01T09:06:58.110Z,53
2016-04-01T09:08:56.990Z,54
2016-04-01T09:09:58.024Z,54
2016-04-01T09:10:57.715Z,54
2016-04-01T09:11:57.857Z,54
2016-04-01T09:12:57.329Z,54
2016-04-01T09:15:57.290Z,55
2016-04-01T09:16:57.465Z,54
2016-04-01T09:17:57.155Z,54
2016-04-01T09:19:57.754Z,54
2016-04-01T09:20:57.195Z,54
2016-04-01T09:21:56.759Z,54
2016-04-01T09:22:56.543Z,54
2016-04-01T09:23:55.983Z,53
2016-04-01T09:24:55.705Z,53
2016-04-01T09:26:54.022Z,53
2016-04-01T09:27:53.572Z,53
2016-04-01T09:28:52.669Z,53
2016-04-01T09:29:53.702Z,53
2016-04-01T09:30:53.236Z,53
2016-04-01T09:31:52.442Z,53
2016-04-01T09:32:51.602Z,53
2016-04-01T09:33:50.902Z,53
2016-04-01T09:35:49.500Z,53
2016-04-01T09:36:49.253Z,53
2016-04-01T09:38:47.571Z,54
2016-04-01T09:40:48.060Z,54
2016-04-01T09:42:47.301Z,54
2016-04-01T09:43:46.804Z,54
2016-04-01T09:44:46.368Z,54
2016-04-01T09:45:46.402Z,54
2016-04-01T09:47:45.783Z,54
2016-04-01T09:48:45.818Z,54
2016-04-01T09:50:46.354Z,54
2016-04-01T09:51:46.153Z,54
2016-04-01T09:52:46.078Z,54
2016-04-01T09:54:45.583Z,55
2016-04-01T09:55:45.882Z,55
2016-04-01T09:57:46.169Z,55
2016-04-01T09:58:46.500Z,55
2016-04-01T10:00:47.974Z,56
2016-04-01T10:01:48.430Z,56
2016-04-01T10:02:49.182Z,56
2016-04-01T10:03:49.450Z,56
2016-04-01T10:04:50.235Z,56
2016-04-01T10:05:51.190Z,56
2016-04-01T10:06:52.036Z,56
2016-04-01T10:07:52.821Z,57
2016-04-01T10:08:53.839Z,57
2016-04-01T10:09:54.967Z,57
2016-04-01T10:10:56.048Z,57
2016-04-01T10:11:57.254Z,57
2016-04-01T10:12:58.678Z,57
2016-04-01T10:13:59.993Z,57
2016-04-01T10:15:01.324Z,58
2016-04-01T10:16:02.795Z,58
2016-04-01T10:17:04.610Z,58
2016-04-01T10:18:06.066Z,58
2016-04-01T10:21:02.824Z,58
2016-04-01T10:22:00.484Z,59
2016-04-01T10:22:58.642Z,59
2016-04-01T10:23:56.426Z,59
2016-04-01T10:24:54.835Z,59
2016-04-01T10:26:51.278Z,59
2016-04-01T10:27:49.577Z,59
2016-04-01T10:28:47.925Z,59
2016-04-01T10:29:49.067Z,60
2016-04-01T10:30:47.211Z,60
2016-04-01T10:31:45.869Z,60
2016-04-01T10:32:44.403Z,60
2016-04-01T17:29:42.336Z,61
2016-04-01T17:32:41.390Z,61
2016-04-01T17:33:40.550Z,61
2016-04-01T17:34:39.489Z,61
2016-04-01T17:35:38.586Z,60
2016-04-01T17:36:37.324Z,60
2016-04-01T17:38:35.157Z,60
2016-04-01T17:39:33.768Z,60
2016-04-01T17:43:30.499Z,59
2016-04-01T17:44:28.921Z,59
2016-04-01T17:45:26.954Z,59
2016-04-01T17:46:25.238Z,59
2016-04-01T17:47:23.647Z,59
2016-04-01T17:48:21.821Z,59
2016-04-01T17:49:20.168Z,59
2016-04-01T17:50:21.295Z,59
2016-04-01T17:51:19.564Z,59
2016-04-01T17:56:11.171Z,59
2016-04-01T17:57:09.158Z,59
2016-04-01T17:59:05.288Z,59
2016-04-01T18:02:02.359Z,58
2016-04-01T18:02:59.487Z,59
2016-04-01T18:03:58.692Z,58
2016-04-01T18:04:55.820Z,58
2016-04-01T18:06:51.497Z,58
2016-04-01T18:07:49.166Z,58
2016-04-01T18:08:50.860Z,57
2016-04-01T18:09:51.664Z,57
2016-04-01T18:10:53.014Z,57
2016-04-01T18:11:54.096Z,57
2016-04-01T18:12:55.302Z,56
2016-04-01T18:18:53.505Z,48
2016-04-01T18:19:54.320Z,48
2016-04-01T18:21:55.967Z,48
2016-04-01T18:22:56.892Z,49
2016-04-01T18:23:58.238Z,49
2016-04-01T18:24:59.708Z,50
2016-04-01T18:25:57.478Z,50
2016-04-01T18:26:55.527Z,51
2016-04-01T18:28:52.158Z,51
2016-04-01T18:29:53.301Z,51
2016-04-01T18:30:51.585Z,51
2016-04-01T18:31:49.869Z,51
2016-04-01T18:32:48.200Z,51
2016-04-01T18:34:44.627Z,51
2016-04-01T18:36:40.944Z,50
2016-04-01T18:37:39.026Z,50
2016-04-01T18:38:36.684Z,49
2016-04-01T18:39:37.609Z,49
2016-04-01T18:40:39.033Z,48
2016-04-01T18:41:39.865Z,48
2016-04-01T18:47:38.599Z,45
2016-04-01T18:48:37.711Z,45
2016-04-01T18:49:38.729Z,44
2016-04-01T18:50:37.248Z,43
2016-04-01T18:51:35.529Z,43
2016-04-01T18:53:31.862Z,43
2016-04-01T18:54:30.006Z,43
2016-04-01T18:55:27.664Z,43
2016-04-01T19:00:23.663Z,42
2016-04-01T19:01:25.244Z,41
2016-04-01T19:02:26.590Z,42
2016-04-01T19:03:27.874Z,43
2016-04-01T19:04:29.204Z,42
2016-04-01T19:05:30.551Z,42
2016-04-01T19:06:31.976Z,42
2016-04-01T19:08:34.435Z,41
2016-04-01T19:09:35.546Z,40
2016-04-01T19:12:38.151Z,41
2016-04-01T19:14:40.296Z,41
2016-04-01T19:15:41.331Z,41
2016-04-01T19:16:42.302Z,41
2016-04-01T19:17:43.523Z,41
2016-04-01T19:18:44.511Z,41
2016-04-01T19:19:45.498Z,41
2016-04-01T19:20:46.953Z,70
2016-04-01T19:24:52.230Z,41
2016-04-01T19:25:53.436Z,41
2016-04-01T19:26:54.767Z,41
2016-04-01T19:27:56.331Z,42
2016-04-01T19:28:57.834Z,42
2016-04-01T19:31:00.449Z,42
2016-04-01T19:32:56.080Z,42
2016-04-01T19:33:53.879Z,42
2016-04-01T19:34:51.632Z,42
2016-04-01T19:35:49.400Z,43
2016-04-01T19:36:47.293Z,43
2016-04-01T19:43:37.826Z,44
2016-04-01T19:45:34.752Z,44
2016-04-01T19:47:31.945Z,45
2016-04-01T19:48:30.917Z,45
2016-04-01T19:49:31.670Z,45
2016-04-01T19:50:30.469Z,45
2016-04-01T19:51:29.362Z,45
2016-04-01T19:52:28.162Z,45
2016-04-01T19:54:25.746Z,44
2016-04-01T19:56:23.501Z,45
2016-04-01T19:57:22.363Z,45
2016-04-01T19:59:22.369Z,46
2016-04-01T20:00:21.777Z,46
2016-04-01T20:01:20.967Z,46
2016-04-01T20:04:19.225Z,46
2016-04-01T20:05:18.774Z,47
2016-04-01T20:07:18.530Z,47
2016-04-01T20:08:18.346Z,47
2016-04-01T20:09:19.146Z,47
2016-04-01T20:10:19.429Z,23
2016-04-01T20:11:19.369Z,48
2016-04-01T20:12:19.685Z,48
2016-04-01T20:13:19.874Z,48
2016-04-01T20:14:20.190Z,47
2016-04-01T20:15:20.505Z,47
2016-04-01T20:16:20.930Z,48
2016-04-01T20:17:21.510Z,48
2016-04-01T20:18:22.107Z,49
2016-04-01T20:19:23.126Z,49
2016-04-01T20:20:23.925Z,49
2016-04-01T20:21:24.740Z,49
2016-04-01T20:22:25.446Z,49
2016-04-01T20:23:26.496Z,49
2016-04-01T20:24:27.186Z,49
2016-04-01T20:26:28.956Z,49
2016-04-01T20:27:29.912Z,49
2016-04-01T20:28:31.165Z,49
2016-04-01T20:30:32.998Z,49
2016-04-01T20:31:34.298Z,49
2016-04-01T20:32:35.254Z,49
2016-04-01T20:33:36.225Z,50
2016-04-01T20:34:37.666Z,50
2016-04-01T20:35:38.887Z,50
2016-04-01T20:36:40.439Z,50
2016-04-01T20:37:41.519Z,50
2016-04-01T20:38:42.897Z,50
2016-04-01T20:44:50.242Z,50
2016-04-01T20:46:53.309Z,50
2016-04-01T20:47:54.625Z,50
2016-04-01T20:50:58.351Z,50
2016-04-01T20:51:59.807Z,50
2016-04-01T20:53:00.717Z,50
2016-04-01T20:54:02.329Z,50
2016-04-01T20:55:03.551Z,50
2016-04-01T20:56:04.851Z,50
2016-04-01T20:57:06.181Z,50
2016-04-01T20:59:08.889Z,50
2016-04-01T21:01:11.363Z,50
2016-04-01T21:04:15.434Z,50
2016-04-01T21:06:17.830Z,50
2016-04-01T21:07:19.177Z,50
2016-04-01T21:08:20.616Z,50
2016-04-01T21:09:21.869Z,50
2016-04-01T21:10:22.888Z,50
2016-04-01T21:11:24.484Z,50
2016-04-01T21:12:25.768Z,50
2016-04-01T21:13:27.880Z,50
2016-04-01T21:14:29.195Z,50
2016-04-01T21:15:30.386Z,49
2016-04-01T21:17:32.171Z,49
2016-04-01T21:18:33.221Z,48
2016-04-01T21:20:34.852Z,48
2016-04-01T21:21:35.043Z,48
2016-04-01T21:22:35.358Z,47
2016-04-01T21:23:35.298Z,47
2016-04-01T21:24:35.097Z,47
2016-04-01T21:25:35.022Z,47
2016-04-01T21:26:34.806Z,46
2016-04-01T21:27:34.480Z,46
2016-04-01T21:28:33.826Z,46
2016-04-01T21:29:33.267Z,46
2016-04-01T21:30:34.284Z,46
2016-04-01T21:31:33.710Z,45
2016-04-01T21:32:32.619Z,45
2016-04-01T21:33:31.559Z,45
2016-04-01T21:34:30.592Z,45
2016-04-01T21:35:29.486Z,45
2016-04-01T21:36:28.395Z,45
2016-04-01T21:37:27.178Z,45
2016-04-01T21:38:26.025Z,45
2016-04-01T21:39:24.716Z,45
2016-04-01T21:40:25.703Z,45
2016-04-01T21:41:24.394Z,45
2016-04-01T21:42:23.192Z,45
2016-04-01T21:44:20.994Z,45
2016-04-01T21:45:19.763Z,45
2016-04-01T21:46:18.547Z,45
2016-04-01T21:47:17.346Z,45
2016-04-01T21:48:15.927Z,44
2016-04-01T21:49:14.508Z,44
2016-04-01T21:50:15.760Z,44
2016-04-01T21:51:14.296Z,44
2016-04-01T21:52:12.579Z,44
2016-04-01T21:53:11.238Z,44
2016-04-01T21:55:08.181Z,44
2016-04-01T21:56:06.839Z,44
2016-04-01T21:57:05.248Z,44
2016-04-01T21:59:01.988Z,44
2016-04-01T22:00:02.881Z,44
2016-04-01T22:01:01.290Z,44
2016-04-01T22:04:54.520Z,44
2016-04-01T22:06:50.853Z,44
2016-04-01T22:07:49.259Z,44
2016-04-01T22:08:47.574Z,44
2016-04-01T22:09:48.594Z,44
2016-04-01T22:10:46.861Z,44
2016-04-01T22:11:45.036Z,44
2016-04-01T22:12:43.305Z,44
2016-04-01T22:13:41.713Z,44
2016-04-01T22:14:39.872Z,44
2016-04-01T22:15:38.391Z,44
2016-04-01T22:16:36.674Z,44
2016-04-01T22:17:34.818Z,44
2016-04-01T22:18:33.288Z,44
2016-04-01T22:19:34.058Z,44
2016-04-01T22:20:32.341Z,44
2016-04-01T22:21:30.735Z,44
2016-04-01T22:22:29.004Z,44
2016-04-01T22:24:25.696Z,44
2016-04-01T22:25:23.855Z,44
2016-04-01T22:26:21.999Z,44
2016-04-01T22:27:20.392Z,44
2016-04-01T22:29:19.756Z,44
2016-04-01T22:31:16.308Z,44
2016-04-01T22:32:14.702Z,44
2016-04-01T22:34:11.519Z,44
2016-04-01T22:35:09.553Z,44
2016-04-01T22:36:07.947Z,44
2016-04-01T22:37:06.231Z,44
2016-04-01T22:39:05.455Z,44
2016-04-01T22:40:03.848Z,44
2016-04-01T22:42:00.401Z,44
2016-04-01T22:42:58.888Z,44
2016-04-01T22:43:56.952Z,44
2016-04-01T22:44:55.158Z,44
2016-04-01T22:45:53.646Z,44
2016-04-01T22:49:48.904Z,43
2016-04-01T22:50:46.843Z,43
2016-04-01T22:51:44.846Z,43
2016-04-01T22:52:42.974Z,43
2016-04-01T22:54:38.918Z,43
2016-04-01T22:55:37.045Z,43
2016-04-01T22:56:34.985Z,43
2016-04-01T22:57:33.050Z,43
2016-04-01T22:59:32.181Z,43
2016-04-01T23:02:26.157Z,43
2016-04-01T23:03:24.176Z,43
2016-04-01T23:04:22.194Z,43
2016-04-01T23:05:20.290Z,43
2016-04-01T23:06:18.247Z,43
2016-04-01T23:07:16.328Z,43
2016-04-01T23:08:17.517Z,43
2016-04-01T23:09:15.363Z,43
2016-04-01T23:10:13.383Z,43
2016-04-01T23:11:11.416Z,43
2016-04-01T23:12:09.169Z,43
2016-04-01T23:13:07.203Z,43
2016-04-01T23:14:05.221Z,43
2016-04-01T23:15:03.255Z,43
2016-04-01T23:16:01.274Z,43
2016-04-01T23:16:59.088Z,43
2016-04-01T23:18:00.107Z,43
2016-04-01T23:18:57.999Z,43
2016-04-01T23:19:55.644Z,43
2016-04-01T23:20:53.427Z,43
2016-04-01T23:21:51.196Z,43
2016-04-01T23:22:48.961Z,43
2016-04-01T23:23:46.746Z,43
2016-04-01T23:24:44.545Z,43
2016-04-01T23:25:42.282Z,43
2016-04-01T23:26:40.222Z,43
2016-04-01T23:27:41.116Z,43
2016-04-01T23:28:39.118Z,43
2016-04-01T23:30:34.420Z,43
2016-04-01T23:31:32.204Z,43
2016-04-01T23:33:27.991Z,43
2016-04-01T23:34:25.509Z,43
2016-04-01T23:35:23.512Z,43
2016-04-01T23:36:21.343Z,43
2016-04-01T23:38:19.910Z,43
2016-04-01T23:39:17.647Z,43
2016-04-01T23:40:15.463Z,43
2016-04-01T23:41:13.200Z,43
2016-04-01T23:42:10.968Z,43
2016-04-01T23:44:06.520Z,43
2016-04-01T23:45:04.522Z,43
2016-04-01T23:46:02.619Z,43
2016-04-01T23:47:03.622Z,43
2016-04-01T23:48:01.750Z,43
2016-04-01T23:48:59.690Z,43
2016-04-01T23:49:57.693Z,43
2016-04-01T23:50:55.711Z,43
2016-04-01T23:51:53.761Z,43
2016-04-01T23:52:51.890Z,43
2016-04-01T23:53:49.796Z,43
2016-04-01T23:54:47.923Z,43
2016-04-01T23:55:45.895Z,43
2016-04-01T23:56:46.897Z,43
2016-04-01T23:57:44.916Z,43
2016-04-01T23:58:42.949Z,43
2016-04-01T23:59:40.718Z,43
